Flight Track Log - Related Links

Times and Time Zones

All times are in EDT time to prevent confusion due to time zone crossing. See the FIN666 flight status page for this flight to view local times or setup timezone preferences in your user account.

Time Position Orientation Groundspeed Altitude Reporting Facility
EDT Latitude Longitude Course Direction KTS MPH feet Rate Location/Type
Thu 08:26:00 AM 55.9164 13.2747 49° Northeast  Level Estimated
Thu 08:27:00 AM 55.9905 13.4309 50° Northeast  Level Estimated
Thu 08:28:00 AM 56.0644 13.5877 50° Northeast  Level Estimated
Thu 08:29:00 AM 56.1381 13.7451 50° Northeast  Level Estimated
Thu 08:30:00 AM 56.2117 13.9031 50° Northeast  Level Estimated
Thu 08:31:00 AM 56.2850 14.0617 50° Northeast  Level Estimated
Thu 08:32:00 AM 56.3581 14.2208 50° Northeast  Level Estimated
Thu 08:33:00 AM 56.4310 14.3807 50° Northeast  Level Estimated
Thu 08:34:00 AM 56.5037 14.5411 51° Northeast  Level Estimated
Thu 08:35:00 AM 56.5762 14.7021 51° Northeast  Level Estimated
Thu 08:36:00 AM 56.6485 14.8638 51° Northeast  Level Estimated
Thu 08:37:00 AM 56.7206 15.0260 51° Northeast  Level Estimated
Thu 08:38:00 AM 56.7925 15.1889 51° Northeast  Level Estimated
Thu 08:39:00 AM 56.8641 15.3525 51° Northeast  Level Estimated
Thu 08:40:00 AM 56.9356 15.5166 51° Northeast  Level Estimated
Thu 08:41:00 AM 57.0068 15.6814 52° Northeast  Level Estimated
Thu 08:42:00 AM 57.0778 15.8468 52° Northeast  Level Estimated
Thu 08:43:00 AM 57.1486 16.0129 52° Northeast  Level Estimated
Thu 08:44:00 AM 57.2192 16.1795 52° Northeast  Level Estimated
Thu 08:45:00 AM 57.2895 16.3468 52° Northeast  Level Estimated
Thu 08:46:00 AM 57.3596 16.5148 52° Northeast  Level Estimated
Thu 08:47:00 AM 57.4295 16.6834 52° Northeast  Level Estimated
Thu 08:48:00 AM 57.4992 16.8526 52° Northeast  Level Estimated
Thu 08:49:00 AM 57.5686 17.0225 53° Northeast  Level Estimated
Thu 08:50:00 AM 57.6341 17.1838 53° Northeast  Level Estimated
Thu 08:51:00 AM 57.6994 17.3457 53° Northeast  Level Estimated
Thu 08:52:00 AM 57.7645 17.5082 53° Northeast  Level Estimated
Thu 08:53:00 AM 57.8293 17.6712 53° Northeast  Level Estimated
Thu 08:54:00 AM 57.8940 17.8349 53° Northeast  Level Estimated
Thu 08:55:00 AM 57.9584 17.9991 53° Northeast  Level Estimated
Thu 08:56:00 AM 58.0227 18.1639 54° Northeast  Level Estimated
Thu 08:57:00 AM 58.0867 18.3293 54° Northeast  Level Estimated
Thu 08:58:00 AM 58.1505 18.4954 54° Northeast  Level Estimated
Thu 08:59:00 AM 58.2141 18.6620 54° Northeast  Level Estimated
Thu 09:00:00 AM 58.2774 18.8291 54° Northeast  Level Estimated
Thu 09:01:00 AM 58.3406 18.9970 54° Northeast  Level Estimated
Thu 09:02:00 AM 58.4035 19.1653 54° Northeast  Level Estimated
Thu 09:03:00 AM 58.4662 19.3343 55° Northeast  Level Estimated
Thu 09:04:00 AM 58.5287 19.5039 55° Northeast  Level Estimated
Thu 09:05:00 AM 58.5909 19.6741 55° Northeast  Level Estimated
Thu 09:06:00 AM 58.6530 19.8449 55° Northeast  Level Estimated
Thu 09:07:00 AM 58.7148 20.0164 55° Northeast  Level Estimated
Thu 09:08:00 AM 58.7763 20.1884 55° Northeast  Level Estimated
Thu 09:09:00 AM 58.8377 20.3610 55° Northeast  Level Estimated
Thu 09:10:00 AM 58.8988 20.5343 56° Northeast  Level Estimated
Thu 09:11:00 AM 58.9597 20.7081 56° Northeast  Level Estimated
Thu 09:12:00 AM 59.0203 20.8826 56° Northeast  Level Estimated
Thu 09:13:00 AM 59.0807 21.0577 56° Northeast  Level Estimated
Thu 09:14:00 AM 59.1409 21.2334 56° Northeast  Level Estimated
Thu 09:15:00 AM 59.2009 21.4097 56° Northeast  Level Estimated
Thu 09:16:00 AM 59.2605 21.5867 57° Northeast  Level Estimated
Thu 09:17:00 AM 59.3200 21.7642 57° Northeast  Level Estimated
Thu 09:18:00 AM 59.3792 21.9424 57° Northeast  Level Estimated
Thu 09:19:00 AM 59.4382 22.1212 57° Northeast  Level Estimated
Thu 09:20:00 AM 59.4969 22.3006 57° Northeast  Level Estimated
Thu 09:21:00 AM 59.5554 22.4807 57° Northeast  Level Estimated
Thu 09:22:00 AM 59.6136 22.6614 57° Northeast  Level Estimated
Thu 09:23:00 AM 59.6716 22.8426 58° Northeast  Level Estimated
Thu 09:24:00 AM 59.7293 23.0246 58° Northeast  Level Estimated
Thu 09:25:00 AM 59.7868 23.2071 58° Northeast  Level Estimated
Thu 09:26:00 AM 59.8440 23.3903 58° Northeast  Level Estimated
Thu 09:27:00 AM 59.9010 23.5741 58° Northeast  Level Estimated
Thu 09:28:00 AM 59.9577 23.7586 58° Northeast  Level Estimated
Thu 09:29:00 AM 60.0142 23.9437 59° Northeast  Level Estimated
Thu 09:30:00 AM 60.0704 24.1294 59° Northeast  Level Estimated
Thu 09:31:00 AM 60.1263 24.3157 59° Northeast  Level Estimated
Thu 09:32:00 AM 60.1820 24.5027 59° Northeast  Level Estimated
Thu 09:33:00 AM 60.2374 24.6903 59° Northeast  Level Estimated
Thu 09:34:00 AM 60.2925 24.8785 59° Northeast  Level Estimated
Thu 09:35:00 AM 60.3172 24.9633 60° Northeast  Level Estimated
Thu 09:36:00 AM 60.3172 24.9633 North  Level Estimated
Thu 09:37:00 AM 60.3172 24.9633 North  Level Estimated
Thu 09:38:00 AM 60.3172 24.9633 North  Level Estimated
Thu 09:39:00 AM 60.3172 24.9633 North  Level Estimated
Thu 09:40:00 AM 60.3172 24.9633 North  Level Estimated
Thu 09:41:00 AM 60.3172 24.9633 North  Level Estimated
Thu 09:42:00 AM 60.3172 24.9633 North  Level Estimated
Thu 09:43:00 AM 60.3172 24.9633 North  Level Estimated
Thu 09:44:00 AM 60.3172 24.9633 North  Level Estimated
Thu 09:45:00 AM 60.3172 24.9633 North  Level Estimated

Login

Don't have an account? Register now (free) for customized features, flight alerts, and more!